Startpagina
METAR-TAF:

METAR-TAF

Vliegvelden :

Aéroport de Béziers Cap d'Agde en Languedoc

Béziers, Frankrijk

breedte: 43-19N, lengte: 003-21E, hoogte: 17 m

Actueel weer

Dit bericht is 35 minuten geleden gemaakt, om 19:30 UTC
Wind 2 kt uit variabele richting
Temperatuur 19°C
Vochtigheid 88%
Druk 1004 hPa
Zicht 10 km of meer
geen wolken onder 1500 m en geen cumulonimbus

METAR: LFMU 031930Z AUTO VRB02KT CAVOK 19/17 Q1004

Tijdstip: 22:05 (20:05 UTC)


TAF: ontbreekt

Waarnemingen en weersverwachtingen van meer dan 4000 vliegvelden (METAR en TAF).

De beschikbare stations zijn de gele en rode punten op de kaart.

Ga met uw muis naar het station om de naam te zien.

Klik dan om waarnemingen en weersverwachtingen te zien.

kaart wijzigen: klik op de groene knoppen met een zwart kruis om in te zoomen, op de groene knop met een streepje om uit te zoomen of op de groene pijlen voor aangrenzende kaarten.


METAR-TAF: